sensor_id;sensor_type;location;lat;lon;timestamp;pressure;altitude;pressure_sealevel;temperature;humidity
78337;BME280;67610;51.588;7.002;2023-11-19T00:01:45;100229.03;;;12.30;86.10
78337;BME280;67610;51.588;7.002;2023-11-19T00:04:12;100213.50;;;12.35;85.99
78337;BME280;67610;51.588;7.002;2023-11-19T00:06:37;100213.69;;;12.34;86.08
78337;BME280;67610;51.588;7.002;2023-11-19T00:09:03;100228.53;;;12.35;86.27
78337;BME280;67610;51.588;7.002;2023-11-19T00:11:29;100218.56;;;12.45;85.97
78337;BME280;67610;51.588;7.002;2023-11-19T00:13:54;100222.69;;;12.47;85.85
78337;BME280;67610;51.588;7.002;2023-11-19T00:16:19;100210.97;;;12.50;85.83
78337;BME280;67610;51.588;7.002;2023-11-19T00:18:45;100207.88;;;12.46;85.98
78337;BME280;67610;51.588;7.002;2023-11-19T00:21:10;100207.03;;;12.46;86.59
78337;BME280;67610;51.588;7.002;2023-11-19T00:23:36;100216.75;;;12.45;86.65
78337;BME280;67610;51.588;7.002;2023-11-19T00:26:02;100212.78;;;12.49;86.29
78337;BME280;67610;51.588;7.002;2023-11-19T00:28:27;100217.91;;;12.51;86.23
78337;BME280;67610;51.588;7.002;2023-11-19T00:30:53;100212.25;;;12.54;86.25
78337;BME280;67610;51.588;7.002;2023-11-19T00:33:19;100196.91;;;12.57;86.22
78337;BME280;67610;51.588;7.002;2023-11-19T00:35:44;100194.28;;;12.57;86.59
78337;BME280;67610;51.588;7.002;2023-11-19T00:38:10;100197.75;;;12.58;86.25
78337;BME280;67610;51.588;7.002;2023-11-19T00:40:35;100198.00;;;12.63;86.59
78337;BME280;67610;51.588;7.002;2023-11-19T00:43:01;100198.00;;;12.63;86.72
78337;BME280;67610;51.588;7.002;2023-11-19T00:45:26;100182.81;;;12.65;86.69
78337;BME280;67610;51.588;7.002;2023-11-19T00:47:52;100175.72;;;12.66;87.18
78337;BME280;67610;51.588;7.002;2023-11-19T00:50:17;100180.84;;;12.67;87.66
78337;BME280;67610;51.588;7.002;2023-11-19T00:52:43;100174.22;;;12.71;87.78
78337;BME280;67610;51.588;7.002;2023-11-19T00:55:08;100169.25;;;12.76;87.72
78337;BME280;67610;51.588;7.002;2023-11-19T00:57:35;100165.34;;;12.87;87.50
78337;BME280;67610;51.588;7.002;2023-11-19T01:00:01;100157.25;;;12.88;87.36
78337;BME280;67610;51.588;7.002;2023-11-19T01:02:26;100154.25;;;12.91;87.31
78337;BME280;67610;51.588;7.002;2023-11-19T01:04:51;100162.81;;;12.93;87.45
78337;BME280;67610;51.588;7.002;2023-11-19T01:07:17;100167.41;;;12.99;87.42
78337;BME280;67610;51.588;7.002;2023-11-19T01:09:42;100172.47;;;13.09;86.82
78337;BME280;67610;51.588;7.002;2023-11-19T01:12:08;100165.28;;;13.17;86.56
78337;BME280;67610;51.588;7.002;2023-11-19T01:14:38;100161.19;;;13.15;87.13
78337;BME280;67610;51.588;7.002;2023-11-19T01:17:05;100164.66;;;13.15;87.16
78337;BME280;67610;51.588;7.002;2023-11-19T01:19:30;100168.38;;;13.21;87.32
78337;BME280;67610;51.588;7.002;2023-11-19T01:21:56;100166.91;;;13.18;87.62
78337;BME280;67610;51.588;7.002;2023-11-19T01:24:21;100165.09;;;13.19;87.82
78337;BME280;67610;51.588;7.002;2023-11-19T01:26:47;100164.56;;;13.23;87.73
78337;BME280;67610;51.588;7.002;2023-11-19T01:29:15;100166.50;;;13.29;87.44
78337;BME280;67610;51.588;7.002;2023-11-19T01:31:45;100153.81;;;13.40;87.21
78337;BME280;67610;51.588;7.002;2023-11-19T01:34:12;100168.97;;;13.46;87.33
78337;BME280;67610;51.588;7.002;2023-11-19T01:36:38;100169.41;;;13.49;87.05
78337;BME280;67610;51.588;7.002;2023-11-19T01:39:04;100172.34;;;13.54;87.17
78337;BME280;67610;51.588;7.002;2023-11-19T01:41:34;100158.75;;;13.57;87.11
78337;BME280;67610;51.588;7.002;2023-11-19T01:44:00;100155.28;;;13.57;87.38
78337;BME280;67610;51.588;7.002;2023-11-19T01:46:25;100141.06;;;13.58;87.59
78337;BME280;67610;51.588;7.002;2023-11-19T01:48:52;100143.53;;;13.59;87.89
78337;BME280;67610;51.588;7.002;2023-11-19T01:51:17;100140.06;;;13.59;87.57
78337;BME280;67610;51.588;7.002;2023-11-19T01:53:43;100128.75;;;13.65;87.79
78337;BME280;67610;51.588;7.002;2023-11-19T01:56:11;100132.03;;;13.67;87.58
78337;BME280;67610;51.588;7.002;2023-11-19T01:58:39;100124.31;;;13.65;87.69
78337;BME280;67610;51.588;7.002;2023-11-19T02:01:06;100120.66;;;13.66;88.05
78337;BME280;67610;51.588;7.002;2023-11-19T02:03:32;100130.31;;;13.74;87.63
78337;BME280;67610;51.588;7.002;2023-11-19T02:05:59;100128.75;;;13.79;87.14
78337;BME280;67610;51.588;7.002;2023-11-19T02:08:25;100112.97;;;13.86;86.86
78337;BME280;67610;51.588;7.002;2023-11-19T02:10:51;100105.78;;;13.80;87.23
78337;BME280;67610;51.588;7.002;2023-11-19T02:13:17;100114.72;;;13.79;87.22
78337;BME280;67610;51.588;7.002;2023-11-19T02:15:43;100090.56;;;13.82;87.01
78337;BME280;67610;51.588;7.002;2023-11-19T02:20:48;100102.41;;;13.86;86.73
78337;BME280;67610;51.588;7.002;2023-11-19T02:23:14;100099.94;;;13.84;87.08
78337;BME280;67610;51.588;7.002;2023-11-19T02:25:40;100112.97;;;13.86;87.10
78337;BME280;67610;51.588;7.002;2023-11-19T02:28:06;100111.97;;;13.87;87.15
78337;BME280;67610;51.588;7.002;2023-11-19T02:30:32;100111.16;;;13.86;86.92
78337;BME280;67610;51.588;7.002;2023-11-19T02:32:59;100109.69;;;13.84;87.22
78337;BME280;67610;51.588;7.002;2023-11-19T02:35:27;100084.09;;;13.84;86.98
78337;BME280;67610;51.588;7.002;2023-11-19T02:37:56;100088.19;;;13.87;86.99
78337;BME280;67610;51.588;7.002;2023-11-19T02:40:21;100088.69;;;13.97;86.31
78337;BME280;67610;51.588;7.002;2023-11-19T02:42:49;100098.91;;;14.00;86.17
78337;BME280;67610;51.588;7.002;2023-11-19T02:45:14;100093.81;;;13.98;86.20
78337;BME280;67610;51.588;7.002;2023-11-19T02:47:40;100093.00;;;13.98;86.44
78337;BME280;67610;51.588;7.002;2023-11-19T02:50:08;100090.97;;;14.00;85.63
78337;BME280;67610;51.588;7.002;2023-11-19T02:52:43;100082.28;;;14.06;85.73
78337;BME280;67610;51.588;7.002;2023-11-19T02:55:12;100082.28;;;14.06;85.81
78337;BME280;67610;51.588;7.002;2023-11-19T02:57:39;100089.59;;;14.04;85.66
78337;BME280;67610;51.588;7.002;2023-11-19T03:00:19;100085.47;;;14.01;85.64
78337;BME280;67610;51.588;7.002;2023-11-19T03:02:49;100085.06;;;13.98;86.08
78337;BME280;67610;51.588;7.002;2023-11-19T03:05:23;100094.63;;;13.99;86.00
78337;BME280;67610;51.588;7.002;2023-11-19T03:07:48;100076.75;;;14.01;85.56
78337;BME280;67610;51.588;7.002;2023-11-19T03:10:14;100072.09;;;14.03;85.68
78337;BME280;67610;51.588;7.002;2023-11-19T03:12:40;100075.09;;;14.00;85.40
78337;BME280;67610;51.588;7.002;2023-11-19T03:15:06;100083.22;;;13.98;85.79
78337;BME280;67610;51.588;7.002;2023-11-19T03:17:32;100083.78;;;13.94;86.11
78337;BME280;67610;51.588;7.002;2023-11-19T03:19:59;100059.38;;;13.92;86.05
78337;BME280;67610;51.588;7.002;2023-11-19T03:22:26;100060.63;;;13.96;86.23
78337;BME280;67610;51.588;7.002;2023-11-19T03:24:51;100069.63;;;14.01;85.61
78337;BME280;67610;51.588;7.002;2023-11-19T03:27:17;100071.47;;;14.01;85.74
78337;BME280;67610;51.588;7.002;2023-11-19T03:29:42;100090.34;;;13.98;86.12
78337;BME280;67610;51.588;7.002;2023-11-19T03:32:08;100094.44;;;14.00;85.81
78337;BME280;67610;51.588;7.002;2023-11-19T03:34:33;100092.50;;;14.09;85.58
78337;BME280;67610;51.588;7.002;2023-11-19T03:36:59;100083.66;;;14.02;85.50
78337;BME280;67610;51.588;7.002;2023-11-19T03:39:24;100066.41;;;14.06;85.21
78337;BME280;67610;51.588;7.002;2023-11-19T03:41:50;100080.66;;;14.05;85.04
78337;BME280;67610;51.588;7.002;2023-11-19T03:44:16;100076.00;;;14.07;84.61
78337;BME280;67610;51.588;7.002;2023-11-19T03:46:41;100079.09;;;14.11;83.95
78337;BME280;67610;51.588;7.002;2023-11-19T03:49:07;100083.16;;;14.13;84.00
78337;BME280;67610;51.588;7.002;2023-11-19T03:51:32;100090.09;;;14.14;83.43
78337;BME280;67610;51.588;7.002;2023-11-19T03:53:58;100104.09;;;14.08;83.54
78337;BME280;67610;51.588;7.002;2023-11-19T03:56:24;100096.88;;;14.02;83.79
78337;BME280;67610;51.588;7.002;2023-11-19T03:58:49;100087.91;;;13.96;83.82
78337;BME280;67610;51.588;7.002;2023-11-19T04:01:15;100099.81;;;13.92;83.88
78337;BME280;67610;51.588;7.002;2023-11-19T04:03:40;100102.72;;;13.97;83.45
78337;BME280;67610;51.588;7.002;2023-11-19T04:06:06;100093.25;;;14.03;83.05
78337;BME280;67610;51.588;7.002;2023-11-19T04:08:31;100093.00;;;13.98;82.87
78337;BME280;67610;51.588;7.002;2023-11-19T04:10:57;100095.16;;;13.94;83.08
78337;BME280;67610;51.588;7.002;2023-11-19T04:13:22;100086.03;;;13.97;82.98
78337;BME280;67610;51.588;7.002;2023-11-19T04:15:50;100086.72;;;13.99;82.41
78337;BME280;67610;51.588;7.002;2023-11-19T04:18:15;100090.34;;;13.98;82.24
78337;BME280;67610;51.588;7.002;2023-11-19T04:20:41;100083.34;;;13.90;81.95
78337;BME280;67610;51.588;7.002;2023-11-19T04:23:08;100082.84;;;13.80;81.86
78337;BME280;67610;51.588;7.002;2023-11-19T04:25:35;100098.59;;;13.74;82.57
78337;BME280;67610;51.588;7.002;2023-11-19T04:28:00;100101.41;;;13.72;82.38
78337;BME280;67610;51.588;7.002;2023-11-19T04:30:25;100110.81;;;13.75;81.50
78337;BME280;67610;51.588;7.002;2023-11-19T04:32:51;100110.81;;;13.75;80.91
78337;BME280;67610;51.588;7.002;2023-11-19T04:35:19;100114.56;;;13.66;80.79
78337;BME280;67610;51.588;7.002;2023-11-19T04:37:44;100117.03;;;13.53;80.98
78337;BME280;67610;51.588;7.002;2023-11-19T04:40:10;100121.31;;;13.54;81.12
78337;BME280;67610;51.588;7.002;2023-11-19T04:42:37;100117.41;;;13.50;80.78
78337;BME280;67610;51.588;7.002;2023-11-19T04:45:05;100119.00;;;13.51;80.50
78337;BME280;67610;51.588;7.002;2023-11-19T04:47:32;100113.66;;;13.44;80.62
78337;BME280;67610;51.588;7.002;2023-11-19T04:49:58;100114.19;;;13.40;79.95
78337;BME280;67610;51.588;7.002;2023-11-19T04:52:23;100116.00;;;13.39;79.61
78337;BME280;67610;51.588;7.002;2023-11-19T04:54:49;100121.22;;;13.32;79.54
78337;BME280;67610;51.588;7.002;2023-11-19T04:57:14;100126.50;;;13.32;79.55
78337;BME280;67610;51.588;7.002;2023-11-19T04:59:40;100118.66;;;13.24;79.61
78337;BME280;67610;51.588;7.002;2023-11-19T05:02:05;100120.69;;;13.22;79.50
78337;BME280;67610;51.588;7.002;2023-11-19T05:04:31;100117.00;;;13.23;79.45
78337;BME280;67610;51.588;7.002;2023-11-19T05:06:56;100118.75;;;13.16;79.20
78337;BME280;67610;51.588;7.002;2023-11-19T05:09:22;100123.19;;;13.16;79.76
78337;BME280;67610;51.588;7.002;2023-11-19T05:11:47;100123.03;;;13.17;79.98
78337;BME280;67610;51.588;7.002;2023-11-19T05:14:13;100116.84;;;13.25;79.71
78337;BME280;67610;51.588;7.002;2023-11-19T05:16:39;100132.84;;;13.23;79.32
78337;BME280;67610;51.588;7.002;2023-11-19T05:19:05;100131.88;;;13.24;79.48
78337;BME280;67610;51.588;7.002;2023-11-19T05:21:31;100129.59;;;13.21;79.55
78337;BME280;67610;51.588;7.002;2023-11-19T05:23:56;100121.66;;;13.21;79.64
78337;BME280;67610;51.588;7.002;2023-11-19T05:26:23;100120.75;;;13.29;79.57
78337;BME280;67610;51.588;7.002;2023-11-19T05:28:49;100122.75;;;13.42;79.19
78337;BME280;67610;51.588;7.002;2023-11-19T05:31:16;100117.41;;;13.50;78.14
78337;BME280;67610;51.588;7.002;2023-11-19T05:33:41;100105.66;;;13.52;78.58
78337;BME280;67610;51.588;7.002;2023-11-19T05:36:07;100114.41;;;13.53;78.47
78337;BME280;67610;51.588;7.002;2023-11-19T05:38:36;100109.47;;;13.50;78.67
78337;BME280;67610;51.588;7.002;2023-11-19T05:41:02;100122.75;;;13.42;79.29
78337;BME280;67610;51.588;7.002;2023-11-19T05:43:28;100117.31;;;13.43;79.00
78337;BME280;67610;51.588;7.002;2023-11-19T05:45:53;100114.94;;;13.48;78.26
78337;BME280;67610;51.588;7.002;2023-11-19T05:48:18;100113.09;;;13.49;78.30
78337;BME280;67610;51.588;7.002;2023-11-19T05:50:44;100115.38;;;13.52;77.30
78337;BME280;67610;51.588;7.002;2023-11-19T05:53:10;100114.13;;;13.48;76.60
78337;BME280;67610;51.588;7.002;2023-11-19T05:55:39;100118.03;;;13.52;76.24
78337;BME280;67610;51.588;7.002;2023-11-19T05:58:25;100123.78;;;13.41;76.13
78337;BME280;67610;51.588;7.002;2023-11-19T06:00:57;100118.41;;;13.34;76.74
78337;BME280;67610;51.588;7.002;2023-11-19T06:03:23;100120.84;;;13.36;77.13
78337;BME280;67610;51.588;7.002;2023-11-19T06:05:49;100113.75;;;13.36;76.96
78337;BME280;67610;51.588;7.002;2023-11-19T06:08:14;100125.56;;;13.25;77.30
78337;BME280;67610;51.588;7.002;2023-11-19T06:10:40;100119.50;;;13.25;77.60
78337;BME280;67610;51.588;7.002;2023-11-19T06:13:06;100107.72;;;13.27;77.46
78337;BME280;67610;51.588;7.002;2023-11-19T06:15:32;100124.66;;;13.18;77.46
78337;BME280;67610;51.588;7.002;2023-11-19T06:17:58;100125.47;;;13.19;77.51
78337;BME280;67610;51.588;7.002;2023-11-19T06:20:26;100132.75;;;13.17;77.33
78337;BME280;67610;51.588;7.002;2023-11-19T06:22:54;100138.88;;;13.17;77.58
78337;BME280;67610;51.588;7.002;2023-11-19T06:25:19;100133.66;;;13.09;77.41
78337;BME280;67610;51.588;7.002;2023-11-19T06:27:44;100140.41;;;13.12;77.08
78337;BME280;67610;51.588;7.002;2023-11-19T06:30:10;100142.88;;;13.13;76.55
78337;BME280;67610;51.588;7.002;2023-11-19T06:32:37;100139.34;;;12.98;76.78
78337;BME280;67610;51.588;7.002;2023-11-19T06:35:02;100132.06;;;13.00;76.92
78337;BME280;67610;51.588;7.002;2023-11-19T06:37:30;100131.63;;;12.97;76.36
78337;BME280;67610;51.588;7.002;2023-11-19T06:39:55;100137.44;;;12.92;76.53
78337;BME280;67610;51.588;7.002;2023-11-19T06:42:20;100135.59;;;12.93;76.10
78337;BME280;67610;51.588;7.002;2023-11-19T06:44:46;100138.41;;;12.91;76.26
78337;BME280;67610;51.588;7.002;2023-11-19T06:47:11;100147.34;;;12.90;76.47
78337;BME280;67610;51.588;7.002;2023-11-19T06:49:36;100150.38;;;13.02;76.06
78337;BME280;67610;51.588;7.002;2023-11-19T06:52:02;100157.28;;;13.03;76.07
78337;BME280;67610;51.588;7.002;2023-11-19T06:54:28;100170.03;;;12.99;76.21
78337;BME280;67610;51.588;7.002;2023-11-19T06:56:53;100161.59;;;13.04;75.84
78337;BME280;67610;51.588;7.002;2023-11-19T06:59:18;100165.00;;;13.12;75.68
78337;BME280;67610;51.588;7.002;2023-11-19T07:01:44;100175.25;;;13.07;76.35
78337;BME280;67610;51.588;7.002;2023-11-19T07:04:12;100158.81;;;13.20;75.48
78337;BME280;67610;51.588;7.002;2023-11-19T07:06:38;100170.66;;;13.24;75.18
78337;BME280;67610;51.588;7.002;2023-11-19T07:09:06;100175.66;;;13.19;75.75
78337;BME280;67610;51.588;7.002;2023-11-19T07:11:41;100164.44;;;13.17;75.72
78337;BME280;67610;51.588;7.002;2023-11-19T07:14:08;100160.34;;;13.14;76.03
78337;BME280;67610;51.588;7.002;2023-11-19T07:16:34;100177.84;;;13.15;75.87
78337;BME280;67610;51.588;7.002;2023-11-19T07:19:03;100171.84;;;13.21;75.68
78337;BME280;67610;51.588;7.002;2023-11-19T07:21:28;100171.19;;;13.19;75.21
78337;BME280;67610;51.588;7.002;2023-11-19T07:23:57;100190.03;;;13.16;75.34
78337;BME280;67610;51.588;7.002;2023-11-19T07:26:23;100183.75;;;13.17;75.75
78337;BME280;67610;51.588;7.002;2023-11-19T07:28:49;100188.03;;;13.18;74.87
78337;BME280;67610;51.588;7.002;2023-11-19T07:31:14;100194.31;;;13.17;75.04
78337;BME280;67610;51.588;7.002;2023-11-19T07:33:40;100188.50;;;13.22;74.62
78337;BME280;67610;51.588;7.002;2023-11-19T07:36:08;100203.53;;;13.21;74.27
78337;BME280;67610;51.588;7.002;2023-11-19T07:38:34;100198.59;;;13.18;74.42
78337;BME280;67610;51.588;7.002;2023-11-19T07:40:59;100196.59;;;13.20;74.14
78337;BME280;67610;51.588;7.002;2023-11-19T07:43:26;100201.63;;;13.15;74.39
78337;BME280;67610;51.588;7.002;2023-11-19T07:45:54;100200.78;;;13.15;73.82
78337;BME280;67610;51.588;7.002;2023-11-19T07:48:20;100203.31;;;13.08;75.03
78337;BME280;67610;51.588;7.002;2023-11-19T07:50:49;100200.59;;;13.16;74.43
78337;BME280;67610;51.588;7.002;2023-11-19T07:53:18;100200.88;;;13.21;73.55
78337;BME280;67610;51.588;7.002;2023-11-19T07:55:44;100209.97;;;13.19;73.82
78337;BME280;67610;51.588;7.002;2023-11-19T07:58:10;100217.56;;;13.22;73.40
78337;BME280;67610;51.588;7.002;2023-11-19T08:00:36;100211.09;;;13.24;72.90
78337;BME280;67610;51.588;7.002;2023-11-19T08:03:02;100214.72;;;13.23;73.10
78337;BME280;67610;51.588;7.002;2023-11-19T08:05:28;100223.28;;;13.25;73.18
78337;BME280;67610;51.588;7.002;2023-11-19T08:07:53;100233.69;;;13.27;73.29
78337;BME280;67610;51.588;7.002;2023-11-19T08:10:19;100233.31;;;13.30;72.51
78337;BME280;67610;51.588;7.002;2023-11-19T08:12:45;100221.97;;;13.29;72.87
78337;BME280;67610;51.588;7.002;2023-11-19T08:15:10;100229.22;;;13.27;73.05
78337;BME280;67610;51.588;7.002;2023-11-19T08:17:36;100223.19;;;13.19;73.31
78337;BME280;67610;51.588;7.002;2023-11-19T08:20:02;100226.84;;;13.32;72.82
78337;BME280;67610;51.588;7.002;2023-11-19T08:22:31;100239.38;;;13.39;72.46
78337;BME280;67610;51.588;7.002;2023-11-19T08:24:56;100227.72;;;13.48;71.70
78337;BME280;67610;51.588;7.002;2023-11-19T08:27:22;100245.50;;;13.54;72.05
78337;BME280;67610;51.588;7.002;2023-11-19T08:29:55;100252.44;;;13.55;71.92
78337;BME280;67610;51.588;7.002;2023-11-19T08:32:25;100246.88;;;13.64;71.80
78337;BME280;67610;51.588;7.002;2023-11-19T08:34:51;100246.06;;;13.64;70.58
78337;BME280;67610;51.588;7.002;2023-11-19T08:37:17;100246.78;;;13.72;71.16
78337;BME280;67610;51.588;7.002;2023-11-19T08:39:46;100240.59;;;13.80;70.96
78337;BME280;67610;51.588;7.002;2023-11-19T08:42:12;100244.22;;;13.79;70.36
78337;BME280;67610;51.588;7.002;2023-11-19T08:44:37;100242.06;;;13.82;70.22
78337;BME280;67610;51.588;7.002;2023-11-19T08:47:03;100231.78;;;13.87;69.92
78337;BME280;67610;51.588;7.002;2023-11-19T08:49:29;100237.97;;;13.80;69.98
78337;BME280;67610;51.588;7.002;2023-11-19T08:51:54;100241.88;;;13.84;70.39
78337;BME280;67610;51.588;7.002;2023-11-19T08:54:20;100242.97;;;13.89;69.72
78337;BME280;67610;51.588;7.002;2023-11-19T08:56:46;100233.88;;;13.92;70.03
78337;BME280;67610;51.588;7.002;2023-11-19T08:59:12;100246.97;;;14.00;69.61
78337;BME280;67610;51.588;7.002;2023-11-19T09:01:37;100250.53;;;13.92;70.00
78337;BME280;67610;51.588;7.002;2023-11-19T09:04:03;100244.81;;;14.04;69.49
78337;BME280;67610;51.588;7.002;2023-11-19T09:06:29;100240.31;;;14.04;69.81
78337;BME280;67610;51.588;7.002;2023-11-19T09:08:55;100243.97;;;14.03;69.56
78337;BME280;67610;51.588;7.002;2023-11-19T09:11:25;100257.19;;;14.03;69.69
78337;BME280;67610;51.588;7.002;2023-11-19T09:13:51;100241.50;;;14.01;69.69
78337;BME280;67610;51.588;7.002;2023-11-19T09:16:16;100251.53;;;14.06;69.37
78337;BME280;67610;51.588;7.002;2023-11-19T09:18:42;100237.84;;;14.02;69.71
78337;BME280;67610;51.588;7.002;2023-11-19T09:21:07;100247.63;;;14.02;70.01
78337;BME280;67610;51.588;7.002;2023-11-19T09:23:32;100251.44;;;13.99;69.16
78337;BME280;67610;51.588;7.002;2023-11-19T09:26:08;100245.88;;;13.94;70.12
78337;BME280;67610;51.588;7.002;2023-11-19T09:28:33;100235.56;;;13.99;69.55
78337;BME280;67610;51.588;7.002;2023-11-19T09:30:58;100242.78;;;14.06;68.53
78337;BME280;67610;51.588;7.002;2023-11-19T09:33:24;100239.75;;;14.09;69.43
78337;BME280;67610;51.588;7.002;2023-11-19T09:35:49;100238.97;;;14.08;69.21
78337;BME280;67610;51.588;7.002;2023-11-19T09:38:16;100245.53;;;14.12;68.56
78337;BME280;67610;51.588;7.002;2023-11-19T09:40:42;100238.88;;;14.31;67.39
78337;BME280;67610;51.588;7.002;2023-11-19T09:43:08;100240.22;;;14.27;67.47
78337;BME280;67610;51.588;7.002;2023-11-19T09:45:47;100246.06;;;14.22;68.51
78337;BME280;67610;51.588;7.002;2023-11-19T09:48:16;100237.94;;;14.24;68.23
78337;BME280;67610;51.588;7.002;2023-11-19T09:50:42;100241.13;;;14.19;68.43
78337;BME280;67610;51.588;7.002;2023-11-19T09:53:08;100241.50;;;14.16;68.51
78337;BME280;67610;51.588;7.002;2023-11-19T09:55:34;100252.97;;;14.23;68.52
78337;BME280;67610;51.588;7.002;2023-11-19T09:58:00;100247.69;;;14.23;68.47
78337;BME280;67610;51.588;7.002;2023-11-19T10:00:27;100242.13;;;14.18;68.06
78337;BME280;67610;51.588;7.002;2023-11-19T10:02:53;100240.88;;;14.14;68.73
78337;BME280;67610;51.588;7.002;2023-11-19T10:05:21;100246.06;;;14.22;68.19
78337;BME280;67610;51.588;7.002;2023-11-19T10:07:48;100229.63;;;14.27;67.77
78337;BME280;67610;51.588;7.002;2023-11-19T10:10:15;100226.16;;;14.26;68.43
78337;BME280;67610;51.588;7.002;2023-11-19T10:12:46;100238.28;;;14.21;68.01
78337;BME280;67610;51.588;7.002;2023-11-19T10:15:23;100236.00;;;14.18;68.87
78337;BME280;67610;51.588;7.002;2023-11-19T10:17:50;100237.75;;;14.25;68.51
78337;BME280;67610;51.588;7.002;2023-11-19T10:20:15;100230.00;;;14.24;68.74
78337;BME280;67610;51.588;7.002;2023-11-19T10:22:41;100227.56;;;14.22;68.84
78337;BME280;67610;51.588;7.002;2023-11-19T10:25:26;100213.50;;;14.22;68.23
78337;BME280;67610;51.588;7.002;2023-11-19T10:27:52;100212.56;;;14.29;67.86
78337;BME280;67610;51.588;7.002;2023-11-19T10:30:20;100230.09;;;14.30;67.64
78337;BME280;67610;51.588;7.002;2023-11-19T10:35:27;100216.13;;;14.36;67.50
78337;BME280;67610;51.588;7.002;2023-11-19T10:37:52;100207.47;;;14.42;66.95
78337;BME280;67610;51.588;7.002;2023-11-19T10:40:18;100210.94;;;14.43;67.09
78337;BME280;67610;51.588;7.002;2023-11-19T10:42:44;100208.09;;;14.44;66.39
78337;BME280;67610;51.588;7.002;2023-11-19T10:45:22;100219.44;;;14.38;67.19
78337;BME280;67610;51.588;7.002;2023-11-19T10:47:53;100228.91;;;14.47;67.00
78337;BME280;67610;51.588;7.002;2023-11-19T10:50:19;100227.47;;;14.30;67.87
78337;BME280;67610;51.588;7.002;2023-11-19T10:52:47;100225.34;;;14.40;67.79
78337;BME280;67610;51.588;7.002;2023-11-19T10:55:15;100208.91;;;14.45;67.12
78337;BME280;67610;51.588;7.002;2023-11-19T10:57:46;100212.81;;;14.49;67.13
78337;BME280;67610;51.588;7.002;2023-11-19T11:00:15;100209.63;;;14.53;66.99
78337;BME280;67610;51.588;7.002;2023-11-19T11:02:49;100213.78;;;14.62;66.17
78337;BME280;67610;51.588;7.002;2023-11-19T11:05:21;100207.84;;;14.60;66.56
78337;BME280;67610;51.588;7.002;2023-11-19T11:08:10;100204.75;;;14.57;66.60
78337;BME280;67610;51.588;7.002;2023-11-19T11:10:39;100209.00;;;14.51;67.24
78337;BME280;67610;51.588;7.002;2023-11-19T11:13:07;100201.56;;;14.61;66.27
78337;BME280;67610;51.588;7.002;2023-11-19T11:15:34;100211.19;;;14.69;65.41
78337;BME280;67610;51.588;7.002;2023-11-19T11:18:01;100215.31;;;14.72;65.30
78337;BME280;67610;51.588;7.002;2023-11-19T11:20:33;100217.69;;;14.66;65.90
78337;BME280;67610;51.588;7.002;2023-11-19T11:28:54;100208.94;;;14.66;64.95
78337;BME280;67610;51.588;7.002;2023-11-19T11:31:35;100212.38;;;14.66;65.33
78337;BME280;67610;51.588;7.002;2023-11-19T11:37:13;100207.19;;;14.73;65.22
78337;BME280;67610;51.588;7.002;2023-11-19T11:39:35;100202.75;;;14.80;64.44
78337;BME280;67610;51.588;7.002;2023-11-19T11:45:05;100182.34;;;14.95;63.81
78337;BME280;67610;51.588;7.002;2023-11-19T11:50:09;100178.59;;;15.11;62.19
78337;BME280;67610;51.588;7.002;2023-11-19T11:55:52;100174.31;;;15.10;61.87
78337;BME280;67610;51.588;7.002;2023-11-19T11:58:18;100160.66;;;15.13;62.08
78337;BME280;67610;51.588;7.002;2023-11-19T12:00:46;100160.66;;;15.13;62.04
78337;BME280;67610;51.588;7.002;2023-11-19T12:03:12;100169.03;;;15.10;62.73
78337;BME280;67610;51.588;7.002;2023-11-19T12:05:42;100173.50;;;15.09;61.97
78337;BME280;67610;51.588;7.002;2023-11-19T12:08:12;100173.28;;;15.11;62.91
78337;BME280;67610;51.588;7.002;2023-11-19T12:10:44;100178.59;;;15.11;62.71
78337;BME280;67610;51.588;7.002;2023-11-19T12:13:10;100172.09;;;15.13;62.58
78337;BME280;67610;51.588;7.002;2023-11-19T12:18:27;100164.59;;;15.17;62.34
78337;BME280;67610;51.588;7.002;2023-11-19T12:20:53;100174.59;;;15.21;62.45
78337;BME280;67610;51.588;7.002;2023-11-19T12:23:18;100160.97;;;15.24;62.24
78337;BME280;67610;51.588;7.002;2023-11-19T12:25:44;100160.00;;;15.32;61.83
78337;BME280;67610;51.588;7.002;2023-11-19T12:28:16;100165.66;;;15.29;61.82
78337;BME280;67610;51.588;7.002;2023-11-19T12:30:43;100160.88;;;15.39;60.82
78337;BME280;67610;51.588;7.002;2023-11-19T12:33:09;100148.81;;;15.36;61.18
78337;BME280;67610;51.588;7.002;2023-11-19T12:35:45;100145.91;;;15.31;61.87
78337;BME280;67610;51.588;7.002;2023-11-19T12:38:20;100140.50;;;15.39;61.29
78337;BME280;67610;51.588;7.002;2023-11-19T12:40:46;100131.91;;;15.37;60.96
78337;BME280;67610;51.588;7.002;2023-11-19T12:43:21;100133.50;;;15.32;61.03
78337;BME280;67610;51.588;7.002;2023-11-19T12:45:50;100147.41;;;15.13;62.22
78337;BME280;67610;51.588;7.002;2023-11-19T12:48:15;100155.47;;;14.98;63.85
78337;BME280;67610;51.588;7.002;2023-11-19T12:53:17;100158.97;;;14.78;66.40
78337;BME280;67610;51.588;7.002;2023-11-19T12:55:43;100160.72;;;14.71;67.07
78337;BME280;67610;51.588;7.002;2023-11-19T12:58:08;100152.53;;;14.65;67.36
78337;BME280;67610;51.588;7.002;2023-11-19T13:00:34;100157.81;;;14.44;68.77
78337;BME280;67610;51.588;7.002;2023-11-19T13:02:59;100155.28;;;14.36;69.19
78337;BME280;67610;51.588;7.002;2023-11-19T13:05:32;100169.03;;;14.46;69.89
78337;BME280;67610;51.588;7.002;2023-11-19T13:08:08;100163.06;;;14.59;69.97
78337;BME280;67610;51.588;7.002;2023-11-19T13:10:50;100165.06;;;14.57;70.05
78337;BME280;67610;51.588;7.002;2023-11-19T13:13:16;100158.13;;;14.56;70.31
78337;BME280;67610;51.588;7.002;2023-11-19T13:15:41;100161.63;;;14.56;70.55
78337;BME280;67610;51.588;7.002;2023-11-19T13:18:08;100143.44;;;14.53;70.19